createdAt,value
2022-10-22T00:13:20.814Z,13.7
2022-10-22T00:42:44.111Z,13.6
2022-10-22T01:11:48.787Z,13.6
2022-10-22T01:41:03.247Z,13.4
2022-10-22T02:10:19.108Z,13.3
2022-10-22T02:39:39.541Z,13.4
2022-10-22T03:09:01.077Z,13.4
2022-10-22T03:38:13.396Z,13.4
2022-10-22T04:07:39.435Z,13.5
2022-10-22T04:36:39.425Z,13.2
2022-10-22T05:05:54.404Z,13
2022-10-22T05:35:14.247Z,12.7
2022-10-22T06:04:23.248Z,12.6
2022-10-22T06:33:33.596Z,12.8
2022-10-22T07:02:46.145Z,13
2022-10-22T07:31:57.510Z,13.3
2022-10-22T08:01:12.185Z,13.7
2022-10-22T08:30:19.900Z,14.3
2022-10-22T08:59:28.071Z,15.6
2022-10-22T09:28:25.541Z,16.4
2022-10-22T09:57:44.529Z,16.7
2022-10-22T10:26:22.336Z,17.2
2022-10-22T10:55:29.582Z,18.8
2022-10-22T11:24:52.746Z,21.5
2022-10-22T11:54:14.605Z,23.1
2022-10-22T12:23:31.351Z,21.2
2022-10-22T12:52:50.424Z,20.9
2022-10-22T13:22:05.647Z,20.6
2022-10-22T13:51:16.659Z,20.2
2022-10-22T14:19:55.137Z,20.4
2022-10-22T14:48:57.033Z,19.8
2022-10-22T15:18:13.041Z,19.7
2022-10-22T15:47:30.528Z,19.4
2022-10-22T16:16:35.451Z,18.9
2022-10-22T16:45:38.126Z,17.6
2022-10-22T17:14:47.496Z,17.1
2022-10-22T17:44:09.730Z,16.7
2022-10-22T18:13:20.267Z,16.3
2022-10-22T18:42:39.075Z,16.1
2022-10-22T19:11:19.756Z,15.8
2022-10-22T19:40:35.833Z,15.6
2022-10-22T20:09:56.913Z,15.3
2022-10-22T20:39:21.630Z,15.2
2022-10-22T21:08:46.445Z,15.1
2022-10-22T21:38:04.366Z,15.1
2022-10-22T22:07:24.560Z,14.9
2022-10-22T22:36:48.044Z,14.8
2022-10-22T23:05:59.781Z,14.4
2022-10-22T23:35:15.449Z,13.9
